Time;durP1;ratioP1;P1;durP2;ratioP2;P2;SDS_P1;SDS_P2;PMS_P1;PMS_P2;Temp;Humidity;BMP_temperature;BMP_pressure;BME280_temperature;BME280_humidity;BME280_pressure;Samples;Min_cycle;Max_cycle;Signal;HPM_P1;HPM_P2
2022/11/24 00:01:54;;;;;;;2.10;0.70;;;7.50;97.40;;;;;;4994370;28;20046;-91
2022/11/24 00:04:21;;;;;;;4.85;1.13;;;7.50;97.40;;;;;;4978355;28;20042;-91
2022/11/24 00:06:48;;;;;;;6.22;0.90;;;7.50;97.40;;;;;;4980196;28;20043;-91
2022/11/24 00:09:18;;;;;;;4.22;0.60;;;7.50;97.40;;;;;;4987127;28;20045;-90
2022/11/24 00:11:45;;;;;;;5.20;0.80;;;7.50;97.30;;;;;;4985473;28;20046;-91
2022/11/24 00:14:12;;;;;;;5.18;0.80;;;7.60;97.40;;;;;;4997768;28;20046;-91
2022/11/24 00:16:39;;;;;;;4.38;0.80;;;7.60;97.30;;;;;;4997824;28;20050;-90
2022/11/24 00:19:14;;;;;;;2.22;0.60;;;7.70;97.30;;;;;;5014017;28;20446;-90
2022/11/24 00:21:45;;;;;;;1.48;0.40;;;7.70;97.20;;;;;;4975439;28;20082;-92
2022/11/24 00:24:13;;;;;;;4.38;0.70;;;7.70;97.20;;;;;;4970056;28;20047;-90
2022/11/24 00:26:40;;;;;;;2.80;0.50;;;7.70;97.20;;;;;;4978058;28;20057;-91
2022/11/24 00:29:09;;;;;;;2.92;0.57;;;7.60;97.20;;;;;;4974305;28;20050;-91
2022/11/24 00:31:39;;;;;;;2.70;0.50;;;7.60;97.20;;;;;;4991867;28;20052;-91
2022/11/24 00:34:10;;;;;;;2.85;0.70;;;7.50;97.30;;;;;;5003832;28;20046;-91
2022/11/24 00:36:38;;;;;;;1.67;0.50;;;7.50;97.40;;;;;;4995011;28;20057;-90
2022/11/24 00:39:10;;;;;;;2.17;0.60;;;7.50;97.30;;;;;;4998418;28;20132;-90
2022/11/24 00:41:41;;;;;;;3.85;0.63;;;7.50;97.30;;;;;;5013936;28;20073;-91
2022/11/24 00:44:08;;;;;;;2.50;0.50;;;7.50;97.30;;;;;;5020877;28;20056;-90
2022/11/24 00:46:38;;;;;;;2.55;0.60;;;7.50;97.40;;;;;;5014187;28;20068;-90
2022/11/24 00:49:06;;;;;;;4.45;0.55;;;7.50;97.40;;;;;;5008414;28;20069;-92
2022/11/24 00:51:33;;;;;;;4.00;0.52;;;7.50;97.40;;;;;;5015320;28;20045;-91
2022/11/24 00:54:01;;;;;;;5.20;0.95;;;7.50;97.30;;;;;;5021613;28;20079;-91
2022/11/24 00:56:29;;;;;;;3.30;0.30;;;7.60;97.30;;;;;;5003640;28;20053;-91
2022/11/24 00:58:56;;;;;;;3.33;0.88;;;7.60;97.30;;;;;;5017899;28;20054;-91
2022/11/24 01:01:27;;;;;;;4.65;0.50;;;7.50;97.30;;;;;;5017443;28;20053;-90
2022/11/24 01:04:00;;;;;;;4.10;0.60;;;7.50;97.30;;;;;;5030397;28;20505;-91
2022/11/24 01:06:28;;;;;;;;;;;7.50;97.30;;;;;;5011882;28;20043;-91
2022/11/24 01:08:56;;;;;;;2.97;0.43;;;7.50;97.40;;;;;;4981744;28;20378;-91
2022/11/24 01:14:18;;;;;;;5.25;0.50;;;7.50;97.30;;;;;;4997834;28;20050;-91
2022/11/24 01:16:48;;;;;;;0.98;0.40;;;7.50;97.40;;;;;;5011158;28;20054;-90
2022/11/24 01:19:15;;;;;;;2.13;0.22;;;7.60;97.30;;;;;;5020979;28;20045;-91
2022/11/24 01:21:43;;;;;;;2.33;0.47;;;7.50;97.30;;;;;;5017106;28;20050;-91
2022/11/24 01:24:10;;;;;;;2.22;0.45;;;7.50;97.30;;;;;;5001094;28;20050;-92
2022/11/24 01:26:39;;;;;;;3.38;0.30;;;7.50;97.30;;;;;;5016690;28;20089;-92
2022/11/24 01:29:08;;;;;;;2.08;0.38;;;7.50;97.30;;;;;;5001093;28;20072;-92
2022/11/24 01:31:35;;;;;;;1.73;0.43;;;7.50;97.30;;;;;;5003531;28;20136;-89
2022/11/24 01:34:03;;;;;;;1.67;0.30;;;7.50;97.30;;;;;;5010593;28;20077;-89
2022/11/24 01:36:33;;;;;;;1.33;0.30;;;7.50;97.30;;;;;;4983977;28;20053;-88
2022/11/24 01:39:06;;;;;;;1.35;0.30;;;7.40;97.30;;;;;;4981065;28;20116;-89
2022/11/24 01:41:34;;;;;;;1.27;0.30;;;7.40;97.40;;;;;;4998769;28;20050;-90
2022/11/24 01:44:23;;;;;;;4.75;0.40;;;7.40;97.40;;;;;;5012540;28;20042;-89
2022/11/24 01:46:58;;;;;;;2.05;0.20;;;7.40;97.40;;;;;;5013429;28;20050;-89
2022/11/24 01:49:56;;;;;;;1.00;0.30;;;7.50;97.40;;;;;;4999786;28;20108;-90
2022/11/24 01:52:37;;;;;;;1.98;0.30;;;7.60;97.30;;;;;;5002629;28;20049;-90
2022/11/24 01:55:12;;;;;;;1.52;0.77;;;7.60;97.30;;;;;;5009052;28;20096;-90
2022/11/24 01:57:53;;;;;;;4.57;0.35;;;7.60;97.20;;;;;;5029949;28;20054;-89
2022/11/24 02:00:21;;;;;;;3.75;0.50;;;7.50;97.20;;;;;;4999738;28;20049;-89
2022/11/24 02:02:52;;;;;;;2.50;0.68;;;7.50;97.30;;;;;;5017582;28;20045;-89
2022/11/24 02:05:41;;;;;;;1.27;0.32;;;7.50;97.30;;;;;;5007812;28;20494;-89
2022/11/24 02:08:19;;;;;;;1.75;0.35;;;7.50;97.30;;;;;;5015390;28;20038;-89
2022/11/24 02:10:47;;;;;;;3.40;0.40;;;7.50;97.30;;;;;;5017698;28;20046;-89
2022/11/24 02:13:18;;;;;;;2.28;0.45;;;7.50;97.30;;;;;;4992395;28;20053;-89
2022/11/24 02:15:45;;;;;;;2.78;0.35;;;7.50;97.40;;;;;;4996867;28;20056;-89
2022/11/24 02:18:12;;;;;;;0.90;0.40;;;7.50;97.40;;;;;;5004839;28;20057;-89
2022/11/24 02:20:39;;;;;;;3.22;0.30;;;7.50;97.30;;;;;;5018838;28;20053;-88
2022/11/24 02:23:23;;;;;;;2.05;0.50;;;7.50;97.30;;;;;;5001432;28;20057;-88
2022/11/24 02:26:11;;;;;;;1.98;0.20;;;7.50;97.30;;;;;;4998669;28;20085;-89
2022/11/24 02:28:39;;;;;;;3.03;0.40;;;7.60;97.30;;;;;;4979661;28;20047;-88
2022/11/24 02:31:09;;;;;;;3.85;0.52;;;7.50;97.30;;;;;;5010968;28;20092;-88
2022/11/24 02:33:37;;;;;;;3.63;0.43;;;7.60;97.30;;;;;;5004397;28;20129;-88
2022/11/24 02:36:04;;;;;;;2.75;0.60;;;7.60;97.20;;;;;;5023056;28;20050;-89
2022/11/24 02:38:33;;;;;;;6.05;0.88;;;7.70;97.20;;;;;;5002877;28;20091;-89
2022/11/24 02:41:09;;;;;;;3.60;0.50;;;7.70;97.20;;;;;;5008087;28;20078;-89
2022/11/24 02:43:45;;;;;;;2.97;0.40;;;7.70;97.10;;;;;;5015752;28;20042;-88
2022/11/24 02:46:12;;;;;;;3.97;1.10;;;7.70;97.10;;;;;;5014762;28;20046;-88
2022/11/24 02:48:39;;;;;;;6.38;0.70;;;7.60;97.10;;;;;;4998469;28;20038;-88
2022/11/24 02:51:06;;;;;;;4.40;0.52;;;7.60;97.10;;;;;;4998278;28;20459;-88
2022/11/24 02:53:33;;;;;;;3.05;0.60;;;7.60;97.20;;;;;;5016021;28;20088;-88
2022/11/24 02:56:00;;;;;;;2.45;0.60;;;7.60;97.10;;;;;;5016386;28;20054;-87
2022/11/24 02:58:28;;;;;;;2.80;0.50;;;7.60;97.40;;;;;;4998283;28;20057;-88
2022/11/24 03:00:56;;;;;;;3.83;0.60;;;7.60;97.20;;;;;;5000260;28;20054;-89
2022/11/24 03:03:23;;;;;;;2.67;0.65;;;7.50;97.20;;;;;;5009208;28;20042;-88
2022/11/24 03:05:54;;;;;;;4.20;0.80;;;7.50;97.20;;;;;;5010304;28;20046;-88
2022/11/24 03:08:21;;;;;;;3.83;0.65;;;7.40;97.30;;;;;;4997346;28;20168;-88
2022/11/24 03:10:48;;;;;;;4.10;0.60;;;7.50;97.30;;;;;;4998089;28;20056;-88
2022/11/24 03:13:16;;;;;;;2.95;0.60;;;7.40;97.30;;;;;;4997586;28;20095;-88
2022/11/24 03:15:45;;;;;;;3.65;0.52;;;7.40;97.40;;;;;;4997013;28;20563;-88
2022/11/24 03:18:12;;;;;;;3.17;0.63;;;7.40;97.30;;;;;;5002138;28;20046;-88
2022/11/24 03:20:39;;;;;;;3.95;0.50;;;7.30;97.30;;;;;;4990671;28;20061;-88
2022/11/24 03:23:07;;;;;;;2.92;0.30;;;7.30;97.40;;;;;;4984362;28;20084;-88
2022/11/24 03:25:33;;;;;;;3.30;0.52;;;7.20;97.40;;;;;;5009708;28;20049;-88
2022/11/24 03:28:01;;;;;;;3.92;0.93;;;7.20;97.40;;;;;;4999825;28;20038;-88
2022/11/24 03:30:30;;;;;;;3.08;0.43;;;7.20;97.40;;;;;;4994677;28;20107;-88
2022/11/24 03:32:57;;;;;;;4.60;0.60;;;7.20;97.40;;;;;;5016517;28;20100;-88
2022/11/24 03:35:24;;;;;;;4.82;1.00;;;7.20;97.40;;;;;;4978505;28;20069;-89
2022/11/24 03:37:54;;;;;;;3.33;0.57;;;7.20;97.40;;;;;;5007119;28;20085;-88
2022/11/24 03:40:21;;;;;;;4.63;0.80;;;7.30;97.40;;;;;;4997165;28;20042;-88
2022/11/24 03:42:48;;;;;;;2.45;0.57;;;7.30;97.40;;;;;;4979637;28;20042;-88
2022/11/24 03:45:18;;;;;;;3.42;0.40;;;7.40;97.40;;;;;;4997846;28;20048;-89
2022/11/24 03:48:06;;;;;;;2.80;0.70;;;7.50;97.30;;;;;;4994212;28;20038;-88
2022/11/24 03:50:34;;;;;;;2.85;0.52;;;7.50;97.20;;;;;;4974267;28;20058;-88
2022/11/24 03:53:04;;;;;;;4.82;0.93;;;7.60;97.20;;;;;;4978078;28;20121;-88
2022/11/24 03:55:31;;;;;;;2.50;0.40;;;7.60;97.10;;;;;;4997921;28;20054;-89
2022/11/24 03:57:58;;;;;;;4.45;0.70;;;7.70;97.10;;;;;;4974586;28;20049;-89
2022/11/24 04:00:26;;;;;;;5.35;1.42;;;7.60;97.00;;;;;;4987192;28;20089;-89
2022/11/24 04:02:53;;;;;;;3.10;0.73;;;7.60;97.10;;;;;;5007997;28;20061;-88
2022/11/24 04:05:20;;;;;;;3.63;0.60;;;7.60;97.10;;;;;;5004591;28;20045;-88
2022/11/24 04:07:48;;;;;;;8.48;0.65;;;7.60;97.10;;;;;;4977956;28;20053;-89
2022/11/24 04:10:15;;;;;;;3.97;0.47;;;7.50;97.10;;;;;;4964986;28;20050;-89
2022/11/24 04:12:45;;;;;;;3.15;0.50;;;7.50;97.20;;;;;;4974434;28;20105;-89
2022/11/24 04:15:15;;;;;;;3.65;0.75;;;7.50;97.20;;;;;;4990238;28;20057;-88
2022/11/24 04:17:43;;;;;;;4.22;0.98;;;7.50;97.20;;;;;;4999818;28;20050;-88
2022/11/24 04:20:13;;;;;;;3.78;0.68;;;7.50;97.30;;;;;;5006865;28;20050;-88
2022/11/24 04:22:41;;;;;;;2.72;0.60;;;7.50;97.20;;;;;;4993892;28;20105;-88
2022/11/24 04:25:09;;;;;;;2.15;0.50;;;7.50;97.30;;;;;;4991210;28;20038;-88
2022/11/24 04:27:37;;;;;;;3.97;0.63;;;7.60;97.20;;;;;;5005224;28;20145;-88
2022/11/24 04:30:06;;;;;;;4.25;0.60;;;7.60;97.20;;;;;;5009450;28;20137;-88
2022/11/24 04:32:35;;;;;;;4.75;0.57;;;7.50;97.20;;;;;;4986162;28;20053;-88
2022/11/24 04:35:03;;;;;;;6.40;0.60;;;7.50;97.20;;;;;;4999107;28;20057;-88
2022/11/24 04:37:30;;;;;;;3.58;0.40;;;7.50;97.30;;;;;;5000386;28;20053;-88
2022/11/24 04:39:57;;;;;;;4.25;0.90;;;7.50;97.20;;;;;;5000099;28;20429;-88
2022/11/24 04:42:24;;;;;;;4.05;0.50;;;7.50;97.20;;;;;;5000233;28;20045;-88
2022/11/24 04:44:55;;;;;;;3.60;0.82;;;7.40;97.20;;;;;;5000123;28;20042;-88
2022/11/24 04:47:26;;;;;;;1.63;0.40;;;7.40;97.30;;;;;;4997048;28;20056;-88
2022/11/24 04:49:53;;;;;;;2.17;0.40;;;7.40;97.30;;;;;;4996987;28;20042;-88
2022/11/24 04:52:24;;;;;;;3.60;0.40;;;7.40;97.30;;;;;;4995908;28;20041;-89
2022/11/24 04:54:51;;;;;;;2.92;0.60;;;7.40;97.30;;;;;;5018245;28;20140;-88
2022/11/24 04:57:23;;;;;;;3.40;0.65;;;7.50;97.30;;;;;;4999738;28;20053;-89
2022/11/24 04:59:51;;;;;;;2.55;0.40;;;7.50;97.30;;;;;;5010457;28;20045;-89
2022/11/24 05:02:19;;;;;;;1.80;0.50;;;7.50;97.20;;;;;;4998504;28;20061;-89
2022/11/24 05:04:46;;;;;;;3.67;0.52;;;7.60;97.20;;;;;;4990324;28;20073;-89
2022/11/24 05:07:15;;;;;;;4.43;0.60;;;7.60;97.20;;;;;;5029316;28;20053;-90
2022/11/24 05:12:31;;;;;;;2.83;0.40;;;7.70;97.20;;;;;;5003059;28;20041;-90
2022/11/24 05:15:03;;;;;;;2.85;0.43;;;7.70;97.10;;;;;;4993191;28;20041;-89
2022/11/24 05:17:35;;;;;;;1.80;0.50;;;7.70;97.10;;;;;;5036854;28;20485;-90
2022/11/24 05:20:04;;;;;;;4.75;0.50;;;7.70;97.10;;;;;;5019917;28;20543;-89
2022/11/24 05:22:31;;;;;;;4.32;0.50;;;7.70;97.00;;;;;;5023917;28;20386;-89
2022/11/24 05:24:58;;;;;;;5.43;1.10;;;7.80;97.00;;;;;;5016470;28;20041;-90
2022/11/24 05:27:25;;;;;;;5.90;0.50;;;7.90;97.00;;;;;;5016150;28;20531;-89
2022/11/24 05:29:53;;;;;;;2.55;0.57;;;7.90;96.90;;;;;;5015217;28;20045;-89
2022/11/24 05:32:20;;;;;;;3.58;0.70;;;8.00;96.90;;;;;;5006229;28;20046;-89
2022/11/24 05:34:47;;;;;;;3.58;0.55;;;8.00;96.80;;;;;;5000086;28;20406;-91
2022/11/24 05:37:16;;;;;;;2.08;0.35;;;8.10;96.80;;;;;;5016074;28;20115;-89
2022/11/24 05:39:47;;;;;;;5.10;0.80;;;8.10;96.80;;;;;;5001711;28;20045;-89
2022/11/24 05:44:59;;;;;;;5.65;1.40;;;8.20;96.60;;;;;;5019498;28;20042;-89
2022/11/24 05:47:26;;;;;;;5.50;0.95;;;8.20;96.50;;;;;;4984128;28;20410;-89
2022/11/24 05:49:59;;;;;;;6.28;0.75;;;8.20;96.50;;;;;;5000551;28;20041;-89
2022/11/24 05:52:26;;;;;;;5.82;0.85;;;8.20;96.50;;;;;;4996669;28;20416;-89
2022/11/24 05:54:53;;;;;;;4.25;1.20;;;8.20;96.50;;;;;;5011806;28;20049;-89
2022/11/24 05:57:21;;;;;;;4.78;0.80;;;8.20;96.50;;;;;;5008534;28;20072;-89
2022/11/24 05:59:50;;;;;;;6.28;0.80;;;8.20;96.70;;;;;;4995108;28;20105;-89
2022/11/24 06:02:19;;;;;;;3.60;0.98;;;8.20;96.50;;;;;;5010035;28;20046;-89
2022/11/24 06:04:47;;;;;;;8.38;1.10;;;8.20;96.50;;;;;;5025645;28;20036;-88
2022/11/24 06:07:14;;;;;;;5.05;0.90;;;8.20;96.50;;;;;;5023519;28;20547;-88
2022/11/24 06:09:42;;;;;;;3.25;0.70;;;8.20;96.50;;;;;;5004537;28;20069;-89
2022/11/24 06:12:10;;;;;;;2.30;0.80;;;8.20;96.40;;;;;;4999212;28;20490;-88
2022/11/24 06:14:38;;;;;;;2.88;0.90;;;8.30;96.30;;;;;;5014189;28;20049;-89
2022/11/24 06:17:05;;;;;;;4.07;0.77;;;8.30;96.30;;;;;;5029113;28;20037;-89
2022/11/24 06:19:32;;;;;;;4.05;0.75;;;8.30;96.30;;;;;;5003113;28;20045;-89
2022/11/24 06:22:05;;;;;;;4.00;0.88;;;8.30;96.30;;;;;;4988326;28;20045;-89
2022/11/24 06:24:33;;;;;;;6.05;0.90;;;8.30;96.20;;;;;;5002591;28;20045;-89
2022/11/24 06:27:00;;;;;;;2.13;0.80;;;8.30;96.50;;;;;;5003004;28;20071;-89
2022/11/24 06:29:27;;;;;;;2.30;0.60;;;8.20;96.20;;;;;;5016513;28;20051;-89
2022/11/24 06:31:54;;;;;;;2.55;0.68;;;8.20;96.30;;;;;;5019101;28;20059;-89
2022/11/24 06:34:24;;;;;;;4.40;0.85;;;8.20;96.30;;;;;;5002634;28;20049;-89
2022/11/24 06:36:54;;;;;;;3.55;0.75;;;8.20;96.30;;;;;;5012276;28;20517;-90
2022/11/24 06:39:21;;;;;;;4.95;1.45;;;8.20;96.30;;;;;;4987172;28;20140;-90
2022/11/24 06:41:49;;;;;;;3.65;0.70;;;8.20;96.30;;;;;;5002720;28;20067;-89
2022/11/24 06:44:22;;;;;;;2.75;0.90;;;8.20;96.30;;;;;;5007122;28;20053;-90
2022/11/24 06:46:52;;;;;;;3.28;0.70;;;8.20;96.30;;;;;;5016973;28;20041;-81
2022/11/24 06:49:22;;;;;;;2.10;0.70;;;8.10;96.40;;;;;;5003941;28;20143;-82
2022/11/24 06:51:54;;;;;;;4.00;0.90;;;8.00;96.40;;;;;;5012471;28;20045;-83
2022/11/24 06:54:24;;;;;;;4.45;0.95;;;8.00;96.60;;;;;;5000729;28;20145;-86
2022/11/24 06:57:18;;;;;;;3.13;1.10;;;7.90;96.60;;;;;;5011054;28;20168;-87
2022/11/24 07:00:32;;;;;;;3.30;0.75;;;7.90;96.70;;;;;;5023158;28;20050;-87
2022/11/24 07:03:15;;;;;;;1.13;0.50;;;7.90;96.80;;;;;;5017984;28;20129;-86
2022/11/24 07:06:08;;;;;;;1.05;0.50;;;7.90;96.80;;;;;;4999974;28;20046;-88
2022/11/24 07:09:12;;;;;;;0.85;0.30;;;7.90;96.80;;;;;;5002242;28;20076;-88
2022/11/24 07:12:23;;;;;;;2.42;1.13;;;7.90;96.80;;;;;;5011989;28;20081;-92
2022/11/24 07:15:10;;;;;;;3.28;1.73;;;7.80;96.90;;;;;;5027121;28;20569;-90
2022/11/24 07:17:43;;;;;;;6.15;2.60;;;7.80;97.00;;;;;;4985711;28;20119;-87
2022/11/24 07:20:13;;;;;;;4.97;1.80;;;7.80;97.10;;;;;;5036076;28;20405;-89
2022/11/24 07:22:40;;;;;;;5.28;2.08;;;7.80;97.10;;;;;;4992207;28;20045;-87
2022/11/24 07:25:09;;;;;;;4.20;1.65;;;7.80;97.10;;;;;;5006119;28;20140;-86
2022/11/24 07:27:36;;;;;;;4.38;1.52;;;7.90;97.10;;;;;;4990523;28;20050;-87
2022/11/24 07:30:04;;;;;;;3.65;2.17;;;7.90;97.10;;;;;;5028219;28;20072;-90
2022/11/24 07:32:34;;;;;;;2.90;1.50;;;7.90;97.10;;;;;;5011802;28;20404;-86
2022/11/24 07:35:07;;;;;;;3.50;1.45;;;7.90;97.10;;;;;;5003969;28;20547;-93
2022/11/24 07:37:35;;;;;;;4.18;1.95;;;7.90;97.10;;;;;;5017468;28;20506;-89
2022/11/24 07:40:02;;;;;;;6.07;2.10;;;7.90;97.10;;;;;;5000807;28;20062;-89
2022/11/24 07:42:29;;;;;;;4.22;1.80;;;7.90;97.20;;;;;;5017146;28;20054;-88
2022/11/24 07:45:04;;;;;;;4.43;1.35;;;7.90;97.20;;;;;;5003537;28;20166;-89
2022/11/24 07:48:01;;;;;;;3.95;1.55;;;7.90;97.20;;;;;;4966322;28;20593;-87
2022/11/24 07:51:03;;;;;;;;;;;;;;;;;;;;;
2022/11/24 08:05:09;;;;;;;7.07;3.25;;;7.90;97.20;;;;;;5110869;27;20711;-88
2022/11/24 08:13:00;;;;;;;7.72;3.72;;;7.90;97.30;;;;;;5028436;28;20041;-90
2022/11/24 08:17:21;;;;;;;6.32;3.72;;;7.90;97.30;;;;;;4970721;28;20061;-91
2022/11/24 08:21:07;;;;;;;8.23;3.53;;;8.00;97.30;;;;;;4949438;28;20090;-90
2022/11/24 08:24:58;;;;;;;;;;;;;;;;;;;;;
2022/11/24 08:29:09;;;;;;;12.57;5.32;;;8.00;97.40;;;;;;4879271;29;20129;-88
2022/11/24 08:31:37;;;;;;;8.60;4.72;;;8.00;97.40;;;;;;4838662;29;20042;-89
2022/11/24 08:34:05;;;;;;;9.15;4.05;;;8.00;97.50;;;;;;4860800;29;20148;-90
2022/11/24 08:36:35;;;;;;;10.90;4.35;;;8.00;97.50;;;;;;4904480;29;20048;-90
2022/11/24 08:39:05;;;;;;;9.88;4.57;;;8.10;97.50;;;;;;4969431;28;20042;-90
2022/11/24 08:41:32;;;;;;;14.00;4.45;;;8.20;97.50;;;;;;5007258;28;20084;-90
2022/11/24 08:43:59;;;;;;;9.30;3.65;;;8.20;97.50;;;;;;5053726;28;20094;-91
2022/11/24 08:46:32;;;;;;;7.35;3.33;;;8.20;97.40;;;;;;5053696;28;20049;-91
2022/11/24 08:48:59;;;;;;;12.70;3.75;;;8.30;97.40;;;;;;5053530;28;20083;-88
2022/11/24 08:51:50;;;;;;;6.13;2.85;;;8.30;97.40;;;;;;5053749;28;20040;-91
2022/11/24 08:54:56;;;;;;;9.73;3.08;;;8.30;97.40;;;;;;5067965;28;20033;-90
2022/11/24 09:00:32;;;;;;;6.32;2.72;;;8.30;97.50;;;;;;5031721;28;20047;-89
2022/11/24 09:03:40;;;;;;;6.88;2.00;;;8.30;97.50;;;;;;5049181;28;20049;-91
2022/11/24 09:06:22;;;;;;;10.30;3.28;;;8.30;97.50;;;;;;5041513;28;20053;-87
2022/11/24 09:08:55;;;;;;;5.65;2.42;;;8.40;97.50;;;;;;5039860;28;20053;-87
2022/11/24 09:11:24;;;;;;;5.80;2.05;;;8.30;97.40;;;;;;5021776;28;20049;-85
2022/11/24 09:13:54;;;;;;;8.32;3.22;;;8.40;97.50;;;;;;5046353;28;20487;-84
2022/11/24 09:16:24;;;;;;;6.03;2.65;;;8.30;97.40;;;;;;5006098;28;20103;-88
2022/11/24 09:19:03;;;;;;;10.32;3.10;;;8.30;97.50;;;;;;5051642;28;20120;-83
2022/11/24 09:21:38;;;;;;;8.90;3.42;;;8.20;97.50;;;;;;5053969;28;20037;-84
2022/11/24 09:24:06;;;;;;;7.68;2.35;;;8.20;97.60;;;;;;5054313;28;20078;-83
2022/11/24 09:26:35;;;;;;;7.25;2.22;;;8.10;97.60;;;;;;5037254;28;20049;-83
2022/11/24 09:32:41;;;;;;;5.35;1.85;;;8.20;97.70;;;;;;5045775;28;20045;-85
2022/11/24 09:35:08;;;;;;;8.45;2.88;;;8.20;97.80;;;;;;5037646;28;20140;-85
2022/11/24 09:37:35;;;;;;;6.25;2.05;;;8.20;97.70;;;;;;5053580;28;20041;-84
2022/11/24 09:40:03;;;;;;;6.35;2.55;;;8.30;97.70;;;;;;5053776;28;20051;-84
2022/11/24 09:42:36;;;;;;;5.43;1.80;;;8.40;97.70;;;;;;5037189;28;20049;-84
2022/11/24 09:45:20;;;;;;;3.80;1.70;;;8.40;97.70;;;;;;5041982;28;20045;-85
2022/11/24 09:48:16;;;;;;;5.80;1.80;;;8.50;97.60;;;;;;5053914;28;20049;-85
2022/11/24 09:50:47;;;;;;;5.97;2.55;;;8.60;97.60;;;;;;5023561;28;20048;-85
2022/11/24 09:53:49;;;;;;;6.85;2.53;;;8.60;97.50;;;;;;5044113;28;20041;-85
2022/11/24 09:56:28;;;;;;;6.28;1.55;;;8.70;97.40;;;;;;5053311;28;20077;-85
2022/11/24 09:58:59;;;;;;;5.95;1.80;;;8.70;97.40;;;;;;5037193;28;20064;-85
2022/11/24 10:01:35;;;;;;;8.52;2.00;;;8.60;97.40;;;;;;5040246;28;20069;-85
2022/11/24 10:04:11;;;;;;;10.10;1.60;;;8.60;97.50;;;;;;5037703;28;20060;-84
2022/11/24 10:06:45;;;;;;;4.95;1.77;;;8.50;97.60;;;;;;5045854;28;20368;-84
2022/11/24 10:09:29;;;;;;;5.22;1.40;;;8.50;97.60;;;;;;5031309;28;20561;-84
2022/11/24 10:12:21;;;;;;;5.55;1.25;;;8.50;97.70;;;;;;5037113;28;20067;-84
2022/11/24 10:15:13;;;;;;;7.80;1.83;;;8.50;97.80;;;;;;5052640;28;20049;-84
2022/11/24 10:17:49;;;;;;;4.63;1.10;;;8.40;97.80;;;;;;5048936;28;20067;-82
2022/11/24 10:20:54;;;;;;;4.85;1.27;;;8.40;97.80;;;;;;5037206;28;20063;-85
2022/11/24 10:23:43;;;;;;;4.57;0.85;;;8.40;97.80;;;;;;5021579;28;20053;-84
2022/11/24 10:26:37;;;;;;;6.82;1.85;;;8.40;97.80;;;;;;5036107;28;20502;-83
2022/11/24 10:29:20;;;;;;;5.53;1.33;;;8.50;97.80;;;;;;5036320;28;20477;-84
2022/11/24 10:31:52;;;;;;;4.55;1.45;;;8.50;97.80;;;;;;5052652;28;20067;-83
2022/11/24 10:34:31;;;;;;;4.63;1.35;;;8.50;97.80;;;;;;5052613;28;20036;-83
2022/11/24 10:37:05;;;;;;;6.07;1.38;;;8.60;97.80;;;;;;5052601;28;20083;-83
2022/11/24 10:39:57;;;;;;;6.47;1.20;;;8.60;97.70;;;;;;5036238;28;20049;-84
2022/11/24 10:42:35;;;;;;;6.63;1.52;;;8.70;97.70;;;;;;5041458;28;20045;-86
2022/11/24 10:45:13;;;;;;;7.88;1.67;;;8.70;97.70;;;;;;5053265;28;20049;-84
2022/11/24 10:47:42;;;;;;;5.13;1.13;;;8.70;97.70;;;;;;5037296;28;20048;-83
2022/11/24 10:50:32;;;;;;;6.03;1.60;;;8.70;97.90;;;;;;5019745;28;20040;-83
2022/11/24 10:53:08;;;;;;;8.75;1.70;;;8.70;97.60;;;;;;5035982;28;20064;-82
2022/11/24 10:55:53;;;;;;;7.63;1.58;;;8.80;97.60;;;;;;5035659;28;20128;-82
2022/11/24 10:58:30;;;;;;;4.45;1.20;;;8.90;97.50;;;;;;5024990;28;20049;-84
2022/11/24 11:01:32;;;;;;;6.82;1.00;;;8.90;97.50;;;;;;5036810;28;20045;-83
2022/11/24 11:04:00;;;;;;;6.13;1.50;;;8.90;97.50;;;;;;5044338;28;20057;-88
2022/11/24 11:06:30;;;;;;;9.48;2.00;;;9.00;97.80;;;;;;5030241;28;20074;-86
2022/11/24 11:09:06;;;;;;;3.95;0.70;;;9.10;97.40;;;;;;5029145;28;20151;-84
2022/11/24 11:11:34;;;;;;;6.35;1.38;;;9.20;97.30;;;;;;5047870;28;20067;-85
2022/11/24 11:14:07;;;;;;;6.47;1.60;;;9.20;97.30;;;;;;5027050;28;20045;-85
2022/11/24 11:16:52;;;;;;;8.38;1.83;;;9.20;97.30;;;;;;5037591;28;20067;-85
2022/11/24 11:19:39;;;;;;;6.88;2.10;;;9.20;97.20;;;;;;5035101;28;20052;-84
2022/11/24 11:22:25;;;;;;;8.18;1.90;;;9.20;97.10;;;;;;5027731;28;20052;-86
2022/11/24 11:25:31;;;;;;;10.52;1.67;;;9.20;97.00;;;;;;5035245;28;20068;-83
2022/11/24 11:28:28;;;;;;;8.50;2.25;;;9.20;96.90;;;;;;5002042;28;20057;-82
2022/11/24 11:31:05;;;;;;;8.60;1.85;;;9.30;96.80;;;;;;5045174;28;20051;-85
2022/11/24 11:33:59;;;;;;;10.63;2.50;;;9.30;96.70;;;;;;5046232;28;20114;-83
2022/11/24 11:36:58;;;;;;;8.13;1.65;;;9.40;96.70;;;;;;5053215;28;20044;-89
2022/11/24 11:43:25;;;;;;;7.43;1.33;;;9.40;96.60;;;;;;5051212;28;20041;-91
2022/11/24 11:46:10;;;;;;;5.97;1.52;;;9.40;96.70;;;;;;5048426;28;20079;-85
2022/11/24 11:48:42;;;;;;;6.95;1.15;;;9.40;96.70;;;;;;5036282;28;20049;-86
2022/11/24 11:51:13;;;;;;;4.25;0.95;;;9.40;96.70;;;;;;5050030;28;20133;-85
2022/11/24 11:54:14;;;;;;;5.60;1.38;;;9.40;96.80;;;;;;5035838;28;20132;-85
2022/11/24 11:56:46;;;;;;;8.77;1.08;;;9.50;96.70;;;;;;5038059;28;20042;-86
2022/11/24 12:00:01;;;;;;;;;;;;;;;;;;;;;
2022/11/24 12:02:51;;;;;;;6.93;1.20;;;9.50;96.60;;;;;;5052132;28;20048;-87
2022/11/24 12:05:55;;;;;;;4.80;1.00;;;9.60;96.60;;;;;;5035534;28;20049;-85
2022/11/24 12:08:41;;;;;;;5.27;1.23;;;9.60;96.60;;;;;;5023970;28;20095;-91
2022/11/24 12:11:44;;;;;;;3.72;0.90;;;9.60;96.60;;;;;;5040090;28;20049;-91
2022/11/24 12:14:13;;;;;;;;;;;9.60;96.60;;;;;;5053692;28;20099;-88
2022/11/24 12:17:07;;;;;;;3.08;0.60;;;9.60;96.60;;;;;;5043040;28;19981;-83
2022/11/24 12:20:05;;;;;;;4.05;0.93;;;9.60;96.90;;;;;;5034813;28;20049;-86
2022/11/24 12:22:39;;;;;;;8.82;0.80;;;9.60;96.60;;;;;;5051938;28;20041;-87
2022/11/24 12:25:18;;;;;;;8.43;0.70;;;9.60;96.60;;;;;;5034972;28;20049;-85
2022/11/24 12:27:55;;;;;;;5.15;1.10;;;9.70;96.60;;;;;;5034829;28;20407;-85
2022/11/24 12:30:23;;;;;;;5.82;0.50;;;9.70;96.60;;;;;;5031663;28;20509;-84
2022/11/24 12:33:08;;;;;;;5.57;0.75;;;9.70;96.60;;;;;;5033308;28;20041;-85
2022/11/24 12:35:45;;;;;;;5.10;0.60;;;9.70;96.50;;;;;;5035208;28;20381;-86
2022/11/24 12:38:31;;;;;;;6.00;1.15;;;9.80;96.40;;;;;;5034985;28;20049;-88
2022/11/24 12:41:22;;;;;;;4.05;0.70;;;9.90;96.30;;;;;;5038956;28;20107;-88
2022/11/24 12:44:34;;;;;;;6.75;0.95;;;9.90;96.30;;;;;;5047811;28;20056;-88
2022/11/24 12:47:12;;;;;;;5.47;1.45;;;9.90;96.30;;;;;;5023897;28;20539;-87
2022/11/24 12:49:46;;;;;;;4.13;0.90;;;10.00;96.30;;;;;;5039241;28;20491;-87
2022/11/24 12:52:27;;;;;;;2.70;0.75;;;9.90;96.30;;;;;;5071728;28;20498;-86
2022/11/24 12:54:55;;;;;;;5.32;1.63;;;10.00;96.30;;;;;;5046049;28;20045;-88
2022/11/24 12:57:36;;;;;;;6.85;0.90;;;10.00;96.30;;;;;;5050984;28;20041;-89
2022/11/24 13:00:40;;;;;;;8.43;0.98;;;10.00;96.20;;;;;;5056034;28;20809;-87
2022/11/24 13:03:32;;;;;;;5.57;0.88;;;10.00;96.20;;;;;;5024230;28;20055;-90
2022/11/24 13:06:22;;;;;;;7.45;1.02;;;10.00;96.10;;;;;;5039651;28;20053;-87
2022/11/24 13:08:55;;;;;;;11.23;1.27;;;10.10;96.10;;;;;;5047372;28;20092;-93
2022/11/24 13:11:34;;;;;;;5.13;1.20;;;10.10;96.00;;;;;;5054884;28;20045;-86
2022/11/24 13:14:29;;;;;;;2.72;0.77;;;10.10;96.00;;;;;;5034557;28;20049;-86
2022/11/24 13:17:02;;;;;;;4.75;0.90;;;10.10;95.90;;;;;;5042670;28;20091;-84
2022/11/24 13:19:49;;;;;;;7.25;0.73;;;10.10;95.90;;;;;;5054172;28;20045;-85
2022/11/24 13:22:25;;;;;;;7.57;1.65;;;10.10;95.90;;;;;;5018931;28;20049;-85
2022/11/24 13:25:20;;;;;;;5.63;0.80;;;10.10;95.80;;;;;;5035739;28;20063;-85
2022/11/24 13:27:59;;;;;;;5.88;0.80;;;10.10;95.80;;;;;;5054268;28;20415;-86
2022/11/24 13:30:32;;;;;;;5.40;1.10;;;10.10;95.80;;;;;;5042515;28;20075;-89
2022/11/24 13:33:11;;;;;;;5.13;0.80;;;10.10;95.90;;;;;;5035149;28;20041;-90
2022/11/24 13:36:24;;;;;;;4.47;0.93;;;10.00;95.90;;;;;;5028077;28;20045;-87
2022/11/24 13:38:52;;;;;;;4.78;0.70;;;10.00;95.90;;;;;;5000146;28;20069;-93
2022/11/24 13:41:32;;;;;;;4.18;0.73;;;9.90;96.00;;;;;;5023759;28;20502;-93
2022/11/24 13:44:14;;;;;;;3.50;0.80;;;9.90;95.90;;;;;;5024359;28;20053;-89
2022/11/24 13:47:32;;;;;;;4.63;0.80;;;9.90;95.90;;;;;;5065203;28;20052;-90
2022/11/24 13:50:47;;;;;;;6.50;1.17;;;9.90;95.90;;;;;;5023916;28;20084;-86
2022/11/24 13:53:41;;;;;;;6.10;1.38;;;9.90;95.80;;;;;;5033824;28;20051;-86
2022/11/24 13:56:22;;;;;;;2.75;0.50;;;9.90;95.70;;;;;;5053541;28;20045;-87
2022/11/24 13:59:26;;;;;;;4.68;0.88;;;9.90;95.80;;;;;;5037372;28;20407;-85
2022/11/24 14:01:57;;;;;;;2.92;0.47;;;9.90;95.70;;;;;;4997534;28;20045;-87
2022/11/24 14:04:27;;;;;;;2.03;0.40;;;9.90;95.80;;;;;;5051320;28;20045;-89
2022/11/24 14:07:02;;;;;;;5.13;0.40;;;9.80;95.90;;;;;;5044857;28;20499;-89
2022/11/24 14:09:43;;;;;;;4.13;0.40;;;9.80;95.90;;;;;;5038775;28;20059;-88
2022/11/24 14:12:24;;;;;;;2.65;0.50;;;9.80;95.90;;;;;;5046978;28;20064;-90
2022/11/24 14:14:55;;;;;;;3.17;0.45;;;9.70;95.90;;;;;;5038110;28;20140;-85
2022/11/24 14:17:27;;;;;;;1.90;0.40;;;9.70;96.00;;;;;;5036644;28;20060;-86
2022/11/24 14:19:56;;;;;;;8.80;0.70;;;9.70;96.00;;;;;;5037055;28;20045;-85
2022/11/24 14:22:35;;;;;;;3.20;0.30;;;9.60;96.10;;;;;;5036672;28;20045;-85
2022/11/24 14:25:03;;;;;;;3.92;0.40;;;9.60;96.00;;;;;;5053898;28;20072;-89